sensor_id;sensor_type;location;lat;lon;timestamp;temperature;humidity
49679;DHT22;35570;48.218;16.326;2024-01-16T09:19:24;4.90;62.30
49679;DHT22;35570;48.218;16.326;2024-01-16T09:21:49;5.00;63.00
49679;DHT22;35570;48.218;16.326;2024-01-16T09:24:15;4.90;64.30
49679;DHT22;35570;48.218;16.326;2024-01-16T09:26:42;5.00;63.50
49679;DHT22;35570;48.218;16.326;2024-01-16T09:29:17;5.40;61.50
49679;DHT22;35570;48.218;16.326;2024-01-16T09:35:42;5.40;59.80
49679;DHT22;35570;48.218;16.326;2024-01-16T09:38:44;5.40;60.50
49679;DHT22;35570;48.218;16.326;2024-01-16T09:48:04;5.40;61.10
49679;DHT22;35570;48.218;16.326;2024-01-16T09:50:42;5.60;61.60
49679;DHT22;35570;48.218;16.326;2024-01-16T09:56:49;5.20;61.90
49679;DHT22;35570;48.218;16.326;2024-01-16T10:02:41;5.40;62.50
49679;DHT22;35570;48.218;16.326;2024-01-16T10:30:02;7.40;57.10
49679;DHT22;35570;48.218;16.326;2024-01-16T10:39:39;8.00;55.50
49679;DHT22;35570;48.218;16.326;2024-01-16T10:49:05;9.60;52.80
49679;DHT22;35570;48.218;16.326;2024-01-16T11:01:56;10.60;48.10
49679;DHT22;35570;48.218;16.326;2024-01-16T11:08:05;11.00;47.70
49679;DHT22;35570;48.218;16.326;2024-01-16T11:14:19;9.50;48.70
49679;DHT22;35570;48.218;16.326;2024-01-16T11:27:46;12.60;43.40
49679;DHT22;35570;48.218;16.326;2024-01-16T11:36:53;11.00;45.50
49679;DHT22;35570;48.218;16.326;2024-01-16T11:39:25;10.00;47.00
49679;DHT22;35570;48.218;16.326;2024-01-16T11:51:25;7.60;51.80
49679;DHT22;35570;48.218;16.326;2024-01-16T11:57:26;7.70;49.70
49679;DHT22;35570;48.218;16.326;2024-01-16T12:03:21;8.00;49.10
49679;DHT22;35570;48.218;16.326;2024-01-16T12:05:59;8.20;48.60
49679;DHT22;35570;48.218;16.326;2024-01-16T12:08:40;7.70;49.10
49679;DHT22;35570;48.218;16.326;2024-01-16T12:17:57;7.50;50.70
49679;DHT22;35570;48.218;16.326;2024-01-16T12:20:25;7.00;51.20
49679;DHT22;35570;48.218;16.326;2024-01-16T12:26:20;6.40;51.90
49679;DHT22;35570;48.218;16.326;2024-01-16T12:29:04;6.10;51.90
49679;DHT22;35570;48.218;16.326;2024-01-16T12:31:32;5.90;54.30
49679;DHT22;35570;48.218;16.326;2024-01-16T12:37:13;5.90;53.40
49679;DHT22;35570;48.218;16.326;2024-01-16T12:42:46;5.80;52.60
49679;DHT22;35570;48.218;16.326;2024-01-16T12:45:12;5.70;52.50
49679;DHT22;35570;48.218;16.326;2024-01-16T12:50:47;6.00;52.90
49679;DHT22;35570;48.218;16.326;2024-01-16T12:53:12;5.90;53.00
49679;DHT22;35570;48.218;16.326;2024-01-16T12:55:39;5.80;54.00
49679;DHT22;35570;48.218;16.326;2024-01-16T13:01:51;6.00;53.80
49679;DHT22;35570;48.218;16.326;2024-01-16T13:04:19;6.10;53.20
49679;DHT22;35570;48.218;16.326;2024-01-16T13:07:16;6.20;51.80
49679;DHT22;35570;48.218;16.326;2024-01-16T13:12:52;6.60;51.40
49679;DHT22;35570;48.218;16.326;2024-01-16T13:15:17;6.90;50.40
49679;DHT22;35570;48.218;16.326;2024-01-16T13:17:44;7.10;50.50
49679;DHT22;35570;48.218;16.326;2024-01-16T13:20:10;7.00;49.80
49679;DHT22;35570;48.218;16.326;2024-01-16T13:22:38;6.80;50.00
49679;DHT22;35570;48.218;16.326;2024-01-16T13:25:16;6.70;50.00
49679;DHT22;35570;48.218;16.326;2024-01-16T13:28:16;6.70;50.80
49679;DHT22;35570;48.218;16.326;2024-01-16T13:30:58;6.60;50.60
49679;DHT22;35570;48.218;16.326;2024-01-16T13:33:25;6.70;51.60
49679;DHT22;35570;48.218;16.326;2024-01-16T13:35:59;6.90;50.10
49679;DHT22;35570;48.218;16.326;2024-01-16T13:38:25;6.90;50.00
49679;DHT22;35570;48.218;16.326;2024-01-16T13:40:51;7.00;50.00
49679;DHT22;35570;48.218;16.326;2024-01-16T13:43:21;6.90;50.40
49679;DHT22;35570;48.218;16.326;2024-01-16T13:45:49;7.00;50.10
49679;DHT22;35570;48.218;16.326;2024-01-16T13:48:17;7.20;49.70
49679;DHT22;35570;48.218;16.326;2024-01-16T13:50:43;7.40;50.20
49679;DHT22;35570;48.218;16.326;2024-01-16T13:53:10;7.40;50.00
49679;DHT22;35570;48.218;16.326;2024-01-16T13:55:59;7.50;49.70
49679;DHT22;35570;48.218;16.326;2024-01-16T13:58:37;7.40;49.20
49679;DHT22;35570;48.218;16.326;2024-01-16T14:01:02;7.20;49.40
49679;DHT22;35570;48.218;16.326;2024-01-16T14:03:29;7.00;50.50
49679;DHT22;35570;48.218;16.326;2024-01-16T14:09:17;6.70;50.40
49679;DHT22;35570;48.218;16.326;2024-01-16T14:11:42;6.40;50.70
49679;DHT22;35570;48.218;16.326;2024-01-16T14:14:08;6.20;51.50
49679;DHT22;35570;48.218;16.326;2024-01-16T14:19:43;6.20;52.50
49679;DHT22;35570;48.218;16.326;2024-01-16T14:22:15;6.10;53.00
49679;DHT22;35570;48.218;16.326;2024-01-16T14:24:57;6.20;52.60
49679;DHT22;35570;48.218;16.326;2024-01-16T14:27:33;6.20;52.00
49679;DHT22;35570;48.218;16.326;2024-01-16T14:33:21;5.70;52.20
49679;DHT22;35570;48.218;16.326;2024-01-16T14:35:47;5.70;53.10
49679;DHT22;35570;48.218;16.326;2024-01-16T14:38:12;5.60;53.10
49679;DHT22;35570;48.218;16.326;2024-01-16T14:40:38;5.70;54.60
49679;DHT22;35570;48.218;16.326;2024-01-16T14:43:03;5.60;55.40
49679;DHT22;35570;48.218;16.326;2024-01-16T14:45:48;5.60;55.70
49679;DHT22;35570;48.218;16.326;2024-01-16T14:55:29;5.40;55.60
49679;DHT22;35570;48.218;16.326;2024-01-16T15:00:58;5.20;56.50
49679;DHT22;35570;48.218;16.326;2024-01-16T15:03:24;5.10;56.30
49679;DHT22;35570;48.218;16.326;2024-01-16T15:05:55;5.10;58.20
49679;DHT22;35570;48.218;16.326;2024-01-16T15:08:48;5.10;59.80
49679;DHT22;35570;48.218;16.326;2024-01-16T15:11:47;5.10;59.40
49679;DHT22;35570;48.218;16.326;2024-01-16T15:14:32;5.10;58.50
49679;DHT22;35570;48.218;16.326;2024-01-16T15:17:05;5.00;57.10
49679;DHT22;35570;48.218;16.326;2024-01-16T15:19:37;4.90;57.40
49679;DHT22;35570;48.218;16.326;2024-01-16T15:25:10;4.70;57.70
49679;DHT22;35570;48.218;16.326;2024-01-16T15:27:44;4.70;57.80
49679;DHT22;35570;48.218;16.326;2024-01-16T15:30:36;4.50;58.00
49679;DHT22;35570;48.218;16.326;2024-01-16T15:33:21;4.50;58.80
49679;DHT22;35570;48.218;16.326;2024-01-16T15:35:48;4.40;58.70
49679;DHT22;35570;48.218;16.326;2024-01-16T15:41:40;4.40;59.40
49679;DHT22;35570;48.218;16.326;2024-01-16T15:44:21;4.40;59.40
49679;DHT22;35570;48.218;16.326;2024-01-16T15:50:21;4.30;59.30
49679;DHT22;35570;48.218;16.326;2024-01-16T15:52:56;4.20;59.80
49679;DHT22;35570;48.218;16.326;2024-01-16T15:55:42;4.20;59.50
49679;DHT22;35570;48.218;16.326;2024-01-16T15:58:08;4.60;59.50
49679;DHT22;35570;48.218;16.326;2024-01-16T16:03:57;4.00;59.10
49679;DHT22;35570;48.218;16.326;2024-01-16T16:09:53;4.00;58.50
49679;DHT22;35570;48.218;16.326;2024-01-16T16:12:36;3.90;59.20
49679;DHT22;35570;48.218;16.326;2024-01-16T16:15:30;4.00;59.20
49679;DHT22;35570;48.218;16.326;2024-01-16T16:17:59;4.00;59.60
49679;DHT22;35570;48.218;16.326;2024-01-16T16:20:24;4.00;59.90
49679;DHT22;35570;48.218;16.326;2024-01-16T16:22:50;4.00;59.60
49679;DHT22;35570;48.218;16.326;2024-01-16T16:25:16;4.00;59.50
49679;DHT22;35570;48.218;16.326;2024-01-16T16:27:43;4.00;59.50
49679;DHT22;35570;48.218;16.326;2024-01-16T16:33:32;4.00;59.40
49679;DHT22;35570;48.218;16.326;2024-01-16T16:39:25;3.90;59.80
49679;DHT22;35570;48.218;16.326;2024-01-16T16:42:01;4.10;60.10
49679;DHT22;35570;48.218;16.326;2024-01-16T16:47:19;3.80;59.10
49679;DHT22;35570;48.218;16.326;2024-01-16T16:53:10;3.60;59.30
49679;DHT22;35570;48.218;16.326;2024-01-16T16:58:19;3.50;60.40
49679;DHT22;35570;48.218;16.326;2024-01-16T17:01:06;4.30;60.80
49679;DHT22;35570;48.218;16.326;2024-01-16T17:03:32;3.30;61.00
49679;DHT22;35570;48.218;16.326;2024-01-16T17:06:00;3.20;61.50
49679;DHT22;35570;48.218;16.326;2024-01-16T17:08:26;3.20;61.90
49679;DHT22;35570;48.218;16.326;2024-01-16T17:11:07;3.20;62.40
49679;DHT22;35570;48.218;16.326;2024-01-16T17:13:39;3.20;62.20
49679;DHT22;35570;48.218;16.326;2024-01-16T17:16:07;3.20;62.40
49679;DHT22;35570;48.218;16.326;2024-01-16T17:18:40;3.30;62.80
49679;DHT22;35570;48.218;16.326;2024-01-16T17:21:15;3.30;63.10
49679;DHT22;35570;48.218;16.326;2024-01-16T17:23:45;3.30;62.70
49679;DHT22;35570;48.218;16.326;2024-01-16T17:26:11;3.30;62.70
49679;DHT22;35570;48.218;16.326;2024-01-16T17:31:47;3.20;63.00
49679;DHT22;35570;48.218;16.326;2024-01-16T17:34:12;3.20;63.50
49679;DHT22;35570;48.218;16.326;2024-01-16T17:36:38;3.10;63.60
49679;DHT22;35570;48.218;16.326;2024-01-16T17:39:04;3.10;63.80
49679;DHT22;35570;48.218;16.326;2024-01-16T17:45:16;3.20;62.60
49679;DHT22;35570;48.218;16.326;2024-01-16T17:58:14;3.20;66.20
49679;DHT22;35570;48.218;16.326;2024-01-16T18:01:06;3.30;66.40
49679;DHT22;35570;48.218;16.326;2024-01-16T18:03:57;3.20;66.10
49679;DHT22;35570;48.218;16.326;2024-01-16T18:09:45;3.20;66.70
49679;DHT22;35570;48.218;16.326;2024-01-16T18:15:32;3.40;67.40
49679;DHT22;35570;48.218;16.326;2024-01-16T18:17:58;3.30;68.00
49679;DHT22;35570;48.218;16.326;2024-01-16T18:20:29;3.40;68.10
49679;DHT22;35570;48.218;16.326;2024-01-16T18:26:17;3.30;68.30
49679;DHT22;35570;48.218;16.326;2024-01-16T18:29:08;3.30;68.40
49679;DHT22;35570;48.218;16.326;2024-01-16T18:34:56;3.20;68.10
49679;DHT22;35570;48.218;16.326;2024-01-16T18:37:43;4.70;69.60
49679;DHT22;35570;48.218;16.326;2024-01-16T18:40:10;2.90;68.80
49679;DHT22;35570;48.218;16.326;2024-01-16T19:18:45;2.30;73.20
49679;DHT22;35570;48.218;16.326;2024-01-16T19:21:38;1.50;75.40
49679;DHT22;35570;48.218;16.326;2024-01-16T19:24:27;2.30;76.30
49679;DHT22;35570;48.218;16.326;2024-01-16T19:26:53;2.20;77.30
49679;DHT22;35570;48.218;16.326;2024-01-16T19:32:45;2.20;76.40
49679;DHT22;35570;48.218;16.326;2024-01-16T19:35:17;2.00;76.40
49679;DHT22;35570;48.218;16.326;2024-01-16T19:38:19;2.30;77.20
49679;DHT22;35570;48.218;16.326;2024-01-16T19:40:45;2.20;76.30
49679;DHT22;35570;48.218;16.326;2024-01-16T19:43:17;2.10;78.60
49679;DHT22;35570;48.218;16.326;2024-01-16T19:45:46;3.80;78.90
49679;DHT22;35570;48.218;16.326;2024-01-16T19:48:52;2.30;77.10
49679;DHT22;35570;48.218;16.326;2024-01-16T19:51:45;2.20;76.30
49679;DHT22;35570;48.218;16.326;2024-01-16T19:54:18;1.90;75.40
49679;DHT22;35570;48.218;16.326;2024-01-16T19:57:03;2.80;76.60
49679;DHT22;35570;48.218;16.326;2024-01-16T19:59:52;2.20;76.30
49679;DHT22;35570;48.218;16.326;2024-01-16T20:02:23;2.10;76.20
49679;DHT22;35570;48.218;16.326;2024-01-16T20:04:49;2.80;76.90
49679;DHT22;35570;48.218;16.326;2024-01-16T20:13:46;1.80;77.90
49679;DHT22;35570;48.218;16.326;2024-01-16T20:16:26;2.60;79.20
49679;DHT22;35570;48.218;16.326;2024-01-16T20:18:52;1.50;79.20
49679;DHT22;35570;48.218;16.326;2024-01-16T20:21:40;1.80;79.80
49679;DHT22;35570;48.218;16.326;2024-01-16T20:24:06;1.70;78.90
49679;DHT22;35570;48.218;16.326;2024-01-16T20:26:32;1.70;80.10
49679;DHT22;35570;48.218;16.326;2024-01-16T20:29:02;1.70;79.70
49679;DHT22;35570;48.218;16.326;2024-01-16T20:31:35;1.70;79.80
49679;DHT22;35570;48.218;16.326;2024-01-16T20:41:05;1.60;79.70
49679;DHT22;35570;48.218;16.326;2024-01-16T20:43:50;1.70;80.60
49679;DHT22;35570;48.218;16.326;2024-01-16T20:46:16;1.80;80.20
49679;DHT22;35570;48.218;16.326;2024-01-16T20:48:49;1.60;80.30
49679;DHT22;35570;48.218;16.326;2024-01-16T21:00:07;1.50;81.30
49679;DHT22;35570;48.218;16.326;2024-01-16T21:02:39;0.80;81.40
49679;DHT22;35570;48.218;16.326;2024-01-16T21:08:28;1.30;82.30
49679;DHT22;35570;48.218;16.326;2024-01-16T21:11:02;1.40;82.70
49679;DHT22;35570;48.218;16.326;2024-01-16T21:13:28;1.30;83.20
49679;DHT22;35570;48.218;16.326;2024-01-16T21:19:45;1.20;83.60
49679;DHT22;35570;48.218;16.326;2024-01-16T21:22:20;1.10;83.90
49679;DHT22;35570;48.218;16.326;2024-01-16T21:43:59;0.90;85.60
49679;DHT22;35570;48.218;16.326;2024-01-16T21:46:24;0.80;86.00
49679;DHT22;35570;48.218;16.326;2024-01-16T21:48:50;0.80;85.90
49679;DHT22;35570;48.218;16.326;2024-01-16T21:51:16;0.80;86.00
49679;DHT22;35570;48.218;16.326;2024-01-16T21:53:42;0.80;86.40
49679;DHT22;35570;48.218;16.326;2024-01-16T21:56:08;0.80;86.50
49679;DHT22;35570;48.218;16.326;2024-01-16T21:58:34;0.80;86.80
49679;DHT22;35570;48.218;16.326;2024-01-16T22:01:00;0.80;87.10
49679;DHT22;35570;48.218;16.326;2024-01-16T22:03:30;0.70;86.90
49679;DHT22;35570;48.218;16.326;2024-01-16T22:05:56;1.10;87.80
49679;DHT22;35570;48.218;16.326;2024-01-16T22:08:24;0.70;87.80
49679;DHT22;35570;48.218;16.326;2024-01-16T22:10:50;0.70;87.40
49679;DHT22;35570;48.218;16.326;2024-01-16T22:13:15;2.10;88.60
49679;DHT22;35570;48.218;16.326;2024-01-16T22:15:41;1.60;88.10
49679;DHT22;35570;48.218;16.326;2024-01-16T22:18:07;1.70;88.40
49679;DHT22;35570;48.218;16.326;2024-01-16T22:20:33;1.50;88.10
49679;DHT22;35570;48.218;16.326;2024-01-16T22:26:12;1.10;88.10
49679;DHT22;35570;48.218;16.326;2024-01-16T22:28:37;1.40;88.40
49679;DHT22;35570;48.218;16.326;2024-01-16T22:31:33;0.90;88.30
49679;DHT22;35570;48.218;16.326;2024-01-16T22:34:05;0.60;87.90
49679;DHT22;35570;48.218;16.326;2024-01-16T22:36:31;0.60;88.00
49679;DHT22;35570;48.218;16.326;2024-01-16T22:38:57;0.50;88.30
49679;DHT22;35570;48.218;16.326;2024-01-16T22:41:23;0.50;88.50
49679;DHT22;35570;48.218;16.326;2024-01-16T22:43:48;0.50;88.90
49679;DHT22;35570;48.218;16.326;2024-01-16T22:51:25;0.50;90.00
49679;DHT22;35570;48.218;16.326;2024-01-16T22:53:50;0.50;90.00
49679;DHT22;35570;48.218;16.326;2024-01-16T22:56:16;1.20;90.40
49679;DHT22;35570;48.218;16.326;2024-01-16T22:58:42;0.50;91.00
49679;DHT22;35570;48.218;16.326;2024-01-16T23:01:08;0.50;91.20
49679;DHT22;35570;48.218;16.326;2024-01-16T23:03:34;0.50;90.80
49679;DHT22;35570;48.218;16.326;2024-01-16T23:06:00;0.50;90.80
49679;DHT22;35570;48.218;16.326;2024-01-16T23:18:46;0.30;91.60
49679;DHT22;35570;48.218;16.326;2024-01-16T23:55:40;0.10;95.40
